Time;durP1;ratioP1;P1;durP2;ratioP2;P2;SDS_P1;SDS_P2;PMS_P1;PMS_P2;Temp;Humidity;BMP_temperature;BMP_pressure;BME280_temperature;BME280_humidity;BME280_pressure;Samples;Min_cycle;Max_cycle;Signal;HPM_P1;HPM_P2
2023/09/06 00:00:17;;;;;;;16.77;7.45;;;18.10;99.90;;;;;;5066939;28;20044;-81
2023/09/06 00:02:44;;;;;;;16.30;6.82;;;18.00;99.90;;;;;;5059941;28;20119;-82
2023/09/06 00:05:11;;;;;;;19.20;7.57;;;18.00;99.90;;;;;;5066642;28;20060;-81
2023/09/06 00:07:40;;;;;;;17.08;7.38;;;17.90;99.90;;;;;;5053486;28;20088;-81
2023/09/06 00:10:07;;;;;;;15.55;6.20;;;17.80;99.90;;;;;;5039505;28;20467;-81
2023/09/06 00:12:33;;;;;;;21.63;6.72;;;17.60;99.90;;;;;;5044014;28;20072;-81
2023/09/06 00:15:00;;;;;;;16.95;7.55;;;17.60;99.90;;;;;;5067672;28;20042;-81
2023/09/06 00:17:27;;;;;;;12.07;6.38;;;17.50;99.90;;;;;;5076495;28;20443;-81
2023/09/06 00:19:54;;;;;;;15.85;7.50;;;17.60;99.90;;;;;;5025788;28;20075;-81
2023/09/06 00:22:20;;;;;;;14.95;7.10;;;17.60;99.90;;;;;;5071447;28;20043;-82
2023/09/06 00:24:47;;;;;;;15.50;7.00;;;17.60;99.90;;;;;;5046901;28;20037;-81
2023/09/06 00:27:15;;;;;;;13.13;6.32;;;17.60;99.90;;;;;;5053007;28;20127;-82
2023/09/06 00:29:42;;;;;;;15.73;6.85;;;17.60;99.90;;;;;;5036544;28;20450;-82
2023/09/06 00:32:10;;;;;;;18.58;6.22;;;17.60;99.90;;;;;;5047251;28;20131;-81
2023/09/06 00:34:37;;;;;;;19.23;6.90;;;17.60;99.90;;;;;;5075797;28;20093;-82
2023/09/06 00:37:08;;;;;;;16.55;6.50;;;17.60;99.90;;;;;;5051096;28;20102;-81
2023/09/06 00:39:35;;;;;;;16.80;6.75;;;17.60;99.90;;;;;;5058361;28;20136;-81
2023/09/06 00:42:03;;;;;;;17.33;6.20;;;17.60;99.90;;;;;;5022589;28;20043;-81
2023/09/06 00:44:30;;;;;;;15.32;6.43;;;17.60;99.90;;;;;;5058358;28;20082;-82
2023/09/06 00:46:56;;;;;;;19.10;6.93;;;17.50;99.90;;;;;;5094174;28;20484;-82
2023/09/06 00:49:23;;;;;;;19.38;6.35;;;17.50;99.90;;;;;;5023513;28;20480;-81
2023/09/06 00:51:50;;;;;;;17.33;5.85;;;17.50;99.90;;;;;;5069973;28;20139;-81
2023/09/06 00:54:17;;;;;;;14.32;5.85;;;17.50;99.90;;;;;;5075466;28;20059;-81
2023/09/06 00:56:44;;;;;;;13.32;5.40;;;17.50;99.90;;;;;;5064712;28;20044;-81
2023/09/06 00:59:14;;;;;;;17.55;6.45;;;17.50;99.90;;;;;;5087727;28;20067;-80
2023/09/06 01:01:41;;;;;;;17.27;6.75;;;17.40;99.90;;;;;;5083049;28;20094;-81
2023/09/06 01:04:08;;;;;;;18.58;6.75;;;17.40;99.90;;;;;;5079904;28;20097;-81
2023/09/06 01:06:35;;;;;;;19.90;7.10;;;17.40;99.90;;;;;;5077257;28;20121;-80
2023/09/06 01:09:05;;;;;;;19.15;7.57;;;17.30;99.90;;;;;;5075961;28;20475;-81
2023/09/06 01:11:37;;;;;;;15.07;6.63;;;17.30;99.90;;;;;;5094800;28;20043;-82
2023/09/06 01:14:04;;;;;;;16.63;7.10;;;17.20;99.90;;;;;;5096469;28;20048;-82
2023/09/06 01:16:32;;;;;;;15.32;6.55;;;17.20;99.90;;;;;;5096259;28;20109;-81
2023/09/06 01:18:59;;;;;;;22.67;6.90;;;17.20;99.90;;;;;;5070167;28;20101;-82
2023/09/06 01:21:26;;;;;;;16.08;6.90;;;17.20;99.90;;;;;;5076487;28;20037;-82
2023/09/06 01:23:53;;;;;;;14.95;6.93;;;17.10;99.90;;;;;;5088586;28;20040;-81
2023/09/06 01:26:19;;;;;;;18.10;6.43;;;17.10;99.90;;;;;;5079913;28;20040;-82
2023/09/06 01:28:49;;;;;;;15.73;6.53;;;17.10;99.90;;;;;;5094584;28;20052;-82
2023/09/06 01:31:16;;;;;;;17.80;6.85;;;17.10;99.90;;;;;;5084711;28;20476;-82
2023/09/06 01:33:43;;;;;;;17.25;6.18;;;17.10;99.90;;;;;;5093464;28;20048;-82
2023/09/06 01:36:11;;;;;;;12.80;6.05;;;17.10;99.90;;;;;;5085964;28;20105;-82
2023/09/06 01:38:38;;;;;;;16.50;6.22;;;17.10;99.90;;;;;;5075573;28;20064;-82
2023/09/06 01:41:05;;;;;;;14.27;5.72;;;17.00;99.90;;;;;;5084115;28;20367;-81
2023/09/06 01:43:32;;;;;;;15.02;5.55;;;17.00;99.90;;;;;;5080161;28;20045;-82
2023/09/06 01:45:59;;;;;;;14.27;5.53;;;16.90;99.90;;;;;;5083932;28;20115;-82
2023/09/06 01:48:27;;;;;;;15.73;5.53;;;16.90;99.90;;;;;;5094547;28;20059;-82
2023/09/06 01:50:54;;;;;;;14.27;5.90;;;16.90;99.90;;;;;;5075295;28;20482;-82
2023/09/06 01:53:22;;;;;;;15.10;5.90;;;16.90;99.90;;;;;;5075177;28;20116;-82
2023/09/06 01:55:49;;;;;;;13.88;5.05;;;16.90;99.90;;;;;;5075277;28;20040;-82
2023/09/06 01:58:16;;;;;;;13.07;5.60;;;16.90;99.90;;;;;;5081691;28;20462;-82
2023/09/06 02:00:43;;;;;;;13.60;5.50;;;16.90;99.90;;;;;;5081470;28;20032;-82
2023/09/06 02:03:09;;;;;;;14.88;5.50;;;16.90;99.90;;;;;;5079828;28;20044;-82
2023/09/06 02:05:36;;;;;;;13.88;6.00;;;16.90;99.90;;;;;;5067372;28;20036;-82
2023/09/06 02:10:49;;;;;;;10.98;5.40;;;16.70;99.90;;;;;;5087960;28;20050;-82
2023/09/06 02:13:16;;;;;;;19.38;6.22;;;16.70;99.90;;;;;;5094744;28;20039;-81
2023/09/06 02:15:43;;;;;;;11.50;5.82;;;16.70;99.90;;;;;;5096133;28;20118;-82
2023/09/06 02:18:15;;;;;;;12.45;5.20;;;16.70;99.90;;;;;;5075762;28;20455;-82
2023/09/06 02:20:42;;;;;;;11.90;5.70;;;16.70;99.90;;;;;;5074913;28;20158;-82
2023/09/06 02:23:09;;;;;;;10.75;5.10;;;16.70;99.90;;;;;;5075673;28;20041;-82
2023/09/06 02:25:35;;;;;;;12.32;5.65;;;16.70;99.90;;;;;;5074731;28;20048;-82
2023/09/06 02:28:03;;;;;;;12.55;5.47;;;16.70;99.90;;;;;;5087771;28;20052;-82
2023/09/06 02:30:30;;;;;;;17.30;6.03;;;16.70;99.90;;;;;;5089771;28;20513;-82
2023/09/06 02:32:56;;;;;;;12.77;5.47;;;16.70;99.90;;;;;;5086546;28;20060;-82
2023/09/06 02:35:23;;;;;;;12.52;5.53;;;16.70;99.90;;;;;;5089451;28;20106;-82
2023/09/06 02:37:51;;;;;;;12.63;5.82;;;16.70;99.90;;;;;;5084998;28;20068;-82
2023/09/06 02:40:20;;;;;;;10.90;5.47;;;16.70;99.90;;;;;;5076878;28;20044;-81
2023/09/06 02:42:51;;;;;;;13.57;6.20;;;16.70;99.90;;;;;;5057493;28;20053;-82
2023/09/06 02:45:18;;;;;;;15.90;6.65;;;16.70;99.90;;;;;;5074455;28;20051;-81
2023/09/06 02:47:49;;;;;;;13.85;6.03;;;16.70;99.90;;;;;;5073338;28;20131;-82
2023/09/06 02:50:16;;;;;;;12.20;6.20;;;16.70;99.90;;;;;;5072044;28;20139;-81
2023/09/06 02:52:45;;;;;;;15.13;6.28;;;16.70;99.90;;;;;;5040178;28;20066;-82
2023/09/06 02:55:13;;;;;;;14.25;6.78;;;16.70;99.90;;;;;;5047180;28;20502;-81
2023/09/06 02:57:41;;;;;;;15.60;6.97;;;16.70;99.90;;;;;;5051565;28;20055;-82
2023/09/06 03:00:24;;;;;;;11.82;5.68;;;16.70;99.90;;;;;;5036555;28;20041;-82
2023/09/06 03:02:52;;;;;;;14.90;6.55;;;16.80;99.90;;;;;;5026031;28;20056;-81
2023/09/06 03:05:20;;;;;;;14.80;7.18;;;16.80;99.90;;;;;;5063470;28;20094;-82
2023/09/06 03:07:48;;;;;;;15.20;6.13;;;16.80;99.90;;;;;;5026460;28;20057;-82
2023/09/06 03:10:19;;;;;;;14.98;6.55;;;16.70;99.90;;;;;;5057229;28;20048;-81
2023/09/06 03:12:47;;;;;;;12.90;6.03;;;16.80;99.90;;;;;;5056813;28;20044;-81
2023/09/06 03:15:15;;;;;;;13.50;6.38;;;16.70;99.90;;;;;;5056313;28;20059;-82
2023/09/06 03:17:46;;;;;;;12.00;5.65;;;16.60;99.90;;;;;;5056950;28;20048;-83
2023/09/06 03:23:01;;;;;;;13.38;6.05;;;16.50;99.90;;;;;;5036852;28;20041;-81
2023/09/06 03:25:28;;;;;;;13.18;6.28;;;16.50;99.90;;;;;;5043597;28;20494;-82
2023/09/06 03:28:01;;;;;;;13.65;6.05;;;16.50;99.90;;;;;;5043626;28;20041;-82
2023/09/06 03:30:30;;;;;;;12.82;6.05;;;16.50;99.90;;;;;;5042988;28;20102;-81
2023/09/06 03:32:58;;;;;;;14.82;6.53;;;16.50;99.90;;;;;;5044321;28;20053;-81
2023/09/06 03:35:27;;;;;;;15.88;6.78;;;16.40;99.90;;;;;;5054863;28;20044;-81
2023/09/06 03:37:55;;;;;;;16.20;6.82;;;16.40;99.90;;;;;;5045706;28;20045;-80
2023/09/06 03:40:34;;;;;;;12.80;6.10;;;16.40;99.90;;;;;;5067996;28;20065;-80
2023/09/06 03:43:04;;;;;;;16.48;6.35;;;16.40;99.90;;;;;;5036982;28;20122;-80
2023/09/06 03:45:31;;;;;;;15.13;6.45;;;16.40;99.90;;;;;;5069087;28;20059;-81
2023/09/06 03:48:00;;;;;;;12.38;5.72;;;16.40;99.90;;;;;;5036281;28;20064;-82
2023/09/06 03:50:27;;;;;;;12.23;5.97;;;16.40;99.90;;;;;;5042657;28;20129;-81
2023/09/06 03:52:55;;;;;;;14.90;6.38;;;16.40;99.90;;;;;;5079217;28;20043;-81
2023/09/06 03:55:24;;;;;;;13.35;6.28;;;16.40;99.90;;;;;;5075875;28;20135;-81
2023/09/06 03:57:52;;;;;;;14.27;6.22;;;16.40;99.90;;;;;;5087259;28;20041;-82
2023/09/06 04:00:32;;;;;;;14.75;5.93;;;16.40;99.90;;;;;;5082227;28;20040;-81
2023/09/06 04:03:08;;;;;;;14.05;6.00;;;16.40;99.90;;;;;;5079344;28;20512;-81
2023/09/06 04:05:36;;;;;;;12.75;5.80;;;16.40;99.90;;;;;;5082422;28;20063;-81
2023/09/06 04:08:04;;;;;;;15.73;6.25;;;16.40;99.90;;;;;;5090057;28;20525;-81
2023/09/06 04:10:38;;;;;;;13.32;6.28;;;16.40;99.90;;;;;;5085328;28;20048;-81
2023/09/06 04:13:05;;;;;;;13.55;6.38;;;16.40;99.90;;;;;;5093853;28;20087;-81
2023/09/06 04:15:36;;;;;;;16.48;6.90;;;16.40;99.90;;;;;;5087699;28;20040;-82
2023/09/06 04:18:05;;;;;;;15.88;6.72;;;16.40;99.90;;;;;;5077132;28;20074;-82
2023/09/06 04:20:35;;;;;;;13.95;6.50;;;16.30;99.90;;;;;;5077409;28;20068;-82
2023/09/06 04:23:05;;;;;;;14.40;5.85;;;16.30;99.90;;;;;;5074792;28;20036;-82
2023/09/06 04:25:41;;;;;;;12.23;5.93;;;16.30;99.90;;;;;;5089772;28;20044;-82
2023/09/06 04:28:11;;;;;;;13.15;6.10;;;16.30;99.90;;;;;;5074771;28;20431;-81
2023/09/06 04:30:38;;;;;;;17.17;6.25;;;16.20;99.90;;;;;;5098156;28;20036;-82
2023/09/06 04:33:12;;;;;;;13.60;6.03;;;16.20;99.90;;;;;;5080078;28;20089;-81
2023/09/06 04:35:43;;;;;;;14.48;6.20;;;16.20;99.90;;;;;;5083809;28;20052;-82
2023/09/06 04:38:11;;;;;;;15.57;6.93;;;16.20;99.90;;;;;;5083828;28;20066;-82
2023/09/06 04:40:39;;;;;;;13.43;6.28;;;16.20;99.90;;;;;;5095633;28;20036;-82
2023/09/06 04:43:05;;;;;;;14.45;6.13;;;16.20;99.90;;;;;;5096900;28;20071;-82
2023/09/06 04:45:32;;;;;;;13.52;6.07;;;16.20;99.90;;;;;;5065913;28;20367;-82
2023/09/06 04:47:59;;;;;;;15.20;6.55;;;16.20;99.90;;;;;;5069425;28;20044;-81
2023/09/06 04:50:28;;;;;;;14.23;6.78;;;16.20;99.90;;;;;;5090508;28;20067;-81
2023/09/06 04:52:54;;;;;;;15.32;6.30;;;16.20;99.90;;;;;;5090632;28;20048;-82
2023/09/06 04:55:21;;;;;;;16.63;5.45;;;16.20;99.90;;;;;;5082857;28;20036;-81
2023/09/06 04:57:53;;;;;;;17.67;5.95;;;16.20;99.90;;;;;;5093441;28;20062;-82
2023/09/06 05:00:24;;;;;;;13.45;5.63;;;16.20;99.90;;;;;;5079600;28;20384;-81
2023/09/06 05:02:54;;;;;;;14.52;5.78;;;16.20;99.90;;;;;;5093490;28;20044;-82
2023/09/06 05:05:23;;;;;;;13.98;6.32;;;16.20;99.90;;;;;;5092060;28;20039;-82
2023/09/06 05:07:51;;;;;;;12.88;6.20;;;16.10;99.90;;;;;;5080054;28;20051;-82
2023/09/06 05:10:18;;;;;;;14.23;6.25;;;16.10;99.90;;;;;;5084167;28;20433;-82
2023/09/06 05:12:45;;;;;;;16.65;6.88;;;16.10;99.90;;;;;;5065763;28;20072;-81
2023/09/06 05:15:12;;;;;;;15.10;6.28;;;16.10;99.90;;;;;;5081412;28;20529;-82
2023/09/06 05:17:40;;;;;;;17.00;7.28;;;16.10;99.90;;;;;;5096426;28;20478;-82
2023/09/06 05:20:07;;;;;;;16.38;6.65;;;16.10;99.90;;;;;;5076480;28;20364;-82
2023/09/06 05:22:34;;;;;;;16.48;6.97;;;16.10;99.90;;;;;;5076063;28;20044;-82
2023/09/06 05:25:01;;;;;;;13.90;5.82;;;16.10;99.90;;;;;;5092926;28;20048;-81
2023/09/06 05:29:59;;;;;;;19.53;7.27;;;16.10;99.90;;;;;;5076184;28;20135;-82
2023/09/06 05:32:26;;;;;;;13.82;6.60;;;16.10;99.90;;;;;;5058881;28;20135;-82
2023/09/06 05:34:53;;;;;;;20.55;7.65;;;16.10;99.90;;;;;;5069409;28;20045;-82
2023/09/06 05:37:24;;;;;;;17.25;7.13;;;16.10;99.90;;;;;;5079214;28;20374;-83
2023/09/06 05:39:51;;;;;;;15.95;6.57;;;16.10;99.90;;;;;;5095779;28;20137;-82
2023/09/06 05:42:17;;;;;;;14.50;5.55;;;16.20;99.90;;;;;;5079162;28;20106;-81
2023/09/06 05:44:44;;;;;;;15.85;6.75;;;16.20;99.90;;;;;;5096014;28;20474;-82
2023/09/06 05:47:12;;;;;;;18.58;7.75;;;16.20;99.90;;;;;;5080905;28;20131;-81
2023/09/06 05:49:40;;;;;;;15.07;7.15;;;16.20;99.90;;;;;;5096632;28;20086;-82
2023/09/06 05:52:07;;;;;;;16.85;8.38;;;16.20;99.90;;;;;;5083014;28;20090;-82
2023/09/06 05:54:34;;;;;;;15.95;7.45;;;16.20;99.90;;;;;;5058459;28;20059;-82
2023/09/06 05:57:01;;;;;;;18.27;7.50;;;16.20;99.90;;;;;;5076137;28;20048;-81
2023/09/06 05:59:27;;;;;;;19.77;7.07;;;16.20;99.90;;;;;;5060965;28;20044;-82
2023/09/06 06:01:54;;;;;;;16.55;7.25;;;16.30;99.90;;;;;;5094402;28;20138;-82
2023/09/06 06:04:21;;;;;;;20.40;8.18;;;16.30;99.90;;;;;;5095111;28;20042;-82
2023/09/06 06:06:48;;;;;;;18.88;8.00;;;16.40;99.90;;;;;;5094413;28;20044;-82
2023/09/06 06:09:15;;;;;;;17.50;7.18;;;16.40;99.90;;;;;;5096310;28;20040;-82
2023/09/06 06:11:42;;;;;;;19.98;6.95;;;16.50;99.90;;;;;;5087197;28;20059;-82
2023/09/06 06:14:09;;;;;;;18.75;7.10;;;16.50;99.90;;;;;;5085880;28;20047;-82
2023/09/06 06:16:37;;;;;;;16.73;7.32;;;16.60;99.90;;;;;;5091522;28;20053;-81
2023/09/06 06:19:05;;;;;;;20.23;8.43;;;16.60;99.90;;;;;;5085949;28;20044;-81
2023/09/06 06:21:31;;;;;;;19.85;7.82;;;16.60;99.90;;;;;;5092868;28;20046;-82
2023/09/06 06:23:58;;;;;;;19.42;7.57;;;16.70;99.90;;;;;;5074659;28;20079;-82
2023/09/06 06:26:25;;;;;;;18.63;7.85;;;16.70;99.90;;;;;;5089746;28;20043;-81
2023/09/06 06:28:53;;;;;;;19.50;8.18;;;16.90;99.90;;;;;;5073603;28;20395;-82
2023/09/06 06:31:20;;;;;;;17.67;7.57;;;17.00;99.90;;;;;;5074437;28;20037;-81
2023/09/06 06:33:48;;;;;;;19.83;8.05;;;17.00;99.90;;;;;;5093678;28;20127;-82
2023/09/06 06:36:15;;;;;;;21.70;8.27;;;17.10;99.90;;;;;;5095761;28;20048;-82
2023/09/06 06:38:42;;;;;;;18.40;8.45;;;17.20;99.90;;;;;;5077712;28;20069;-81
2023/09/06 06:41:09;;;;;;;19.00;8.50;;;17.30;99.90;;;;;;5083203;28;20455;-81
2023/09/06 06:43:37;;;;;;;18.25;9.00;;;17.40;99.90;;;;;;5094624;28;20447;-81
2023/09/06 06:46:05;;;;;;;21.63;8.93;;;17.50;99.90;;;;;;5086575;28;20094;-80
2023/09/06 06:48:34;;;;;;;20.67;9.43;;;17.60;99.90;;;;;;5073667;28;20040;-81
2023/09/06 06:51:01;;;;;;;26.55;10.07;;;17.70;99.90;;;;;;5073700;28;20044;-81
2023/09/06 06:53:28;;;;;;;20.70;9.73;;;17.80;99.90;;;;;;5081642;28;20032;-80
2023/09/06 06:55:54;;;;;;;19.05;9.93;;;17.80;99.90;;;;;;5083707;28;20043;-81
2023/09/06 06:58:21;;;;;;;22.33;10.38;;;17.70;99.90;;;;;;5081218;28;20520;-81
2023/09/06 07:00:48;;;;;;;23.75;11.43;;;17.80;99.90;;;;;;5080190;28;20115;-81
2023/09/06 07:03:16;;;;;;;26.85;11.65;;;17.90;99.90;;;;;;5073364;28;20495;-81
2023/09/06 07:05:42;;;;;;;26.20;12.27;;;17.90;99.90;;;;;;5087164;28;20036;-81
2023/09/06 07:08:11;;;;;;;27.25;13.13;;;18.00;99.90;;;;;;5058775;28;20536;-81
2023/09/06 07:10:38;;;;;;;33.88;14.65;;;18.10;99.90;;;;;;5084843;28;20047;-80
2023/09/06 07:13:05;;;;;;;28.98;13.85;;;18.20;99.90;;;;;;5092355;28;20036;-81
2023/09/06 07:15:31;;;;;;;38.50;16.40;;;18.30;99.90;;;;;;5074241;28;20040;-80
2023/09/06 07:18:04;;;;;;;40.08;18.08;;;18.50;99.90;;;;;;5074817;28;20083;-80
2023/09/06 07:20:31;;;;;;;39.17;18.08;;;18.60;99.90;;;;;;5072872;28;20048;-79
2023/09/06 07:22:57;;;;;;;39.35;16.38;;;18.60;99.90;;;;;;5074640;28;20041;-79
2023/09/06 07:25:24;;;;;;;38.33;16.70;;;18.70;99.90;;;;;;5074931;28;20036;-80
2023/09/06 07:27:52;;;;;;;38.13;17.80;;;18.90;99.90;;;;;;5086300;28;20040;-79
2023/09/06 07:30:19;;;;;;;37.25;16.90;;;19.00;99.90;;;;;;5080577;28;20115;-80
2023/09/06 07:32:45;;;;;;;36.92;16.88;;;19.10;99.90;;;;;;5093648;28;20044;-80
2023/09/06 07:35:13;;;;;;;40.72;17.40;;;19.30;99.90;;;;;;5091505;28;20043;-81
2023/09/06 07:37:43;;;;;;;42.50;18.20;;;19.40;99.90;;;;;;5073836;28;20403;-79
2023/09/06 07:40:10;;;;;;;38.33;17.85;;;19.50;99.90;;;;;;5073657;28;20109;-81
2023/09/06 07:42:36;;;;;;;36.38;18.05;;;19.70;99.90;;;;;;5074144;28;20474;-81
2023/09/06 07:45:03;;;;;;;36.45;18.17;;;19.80;99.90;;;;;;5073579;28;20467;-82
2023/09/06 07:47:30;;;;;;;34.00;16.92;;;20.00;99.90;;;;;;5092027;28;20043;-81
2023/09/06 07:49:57;;;;;;;39.92;18.27;;;20.20;99.90;;;;;;5078279;28;20124;-80
2023/09/06 07:52:24;;;;;;;39.22;19.08;;;20.30;99.90;;;;;;5063368;28;20045;-81
2023/09/06 07:54:50;;;;;;;41.05;19.25;;;20.40;99.90;;;;;;5059986;28;20055;-82
2023/09/06 07:57:19;;;;;;;34.90;18.58;;;20.60;99.90;;;;;;5041096;28;20486;-80
2023/09/06 07:59:46;;;;;;;39.47;18.13;;;20.60;99.90;;;;;;5041051;28;20103;-82
2023/09/06 08:02:12;;;;;;;39.40;18.55;;;20.70;99.90;;;;;;5066132;28;20036;-82
2023/09/06 08:04:39;;;;;;;37.15;19.85;;;20.90;99.90;;;;;;5060471;28;20051;-84
2023/09/06 08:07:07;;;;;;;39.17;19.40;;;21.00;99.90;;;;;;5059906;28;20082;-83
2023/09/06 08:09:33;;;;;;;39.22;18.77;;;21.20;99.90;;;;;;5048136;28;20553;-83
2023/09/06 08:12:00;;;;;;;37.22;18.15;;;21.30;99.90;;;;;;5026219;28;20067;-82
2023/09/06 08:14:27;;;;;;;33.33;16.77;;;21.40;99.90;;;;;;5057242;28;20059;-81
2023/09/06 08:16:54;;;;;;;39.85;16.80;;;21.60;99.90;;;;;;5063747;28;20052;-82
2023/09/06 08:19:20;;;;;;;46.00;19.88;;;21.70;99.90;;;;;;5078005;28;20079;-84
2023/09/06 08:21:47;;;;;;;39.47;18.55;;;21.90;99.90;;;;;;5041701;28;20040;-85
2023/09/06 08:24:17;;;;;;;33.05;17.17;;;22.00;99.90;;;;;;5040170;28;20045;-87
2023/09/06 08:26:43;;;;;;;46.85;18.48;;;22.10;99.90;;;;;;5039489;28;20048;-81
2023/09/06 08:29:11;;;;;;;34.10;17.20;;;22.30;99.90;;;;;;5057697;28;20056;-81
2023/09/06 08:31:38;;;;;;;35.00;17.75;;;22.40;99.90;;;;;;5055307;28;20051;-81
2023/09/06 08:34:05;;;;;;;34.90;19.75;;;22.50;99.90;;;;;;5077229;28;20076;-80
2023/09/06 08:36:32;;;;;;;31.52;17.58;;;22.60;99.90;;;;;;5064407;28;20051;-81
2023/09/06 08:39:00;;;;;;;34.80;16.73;;;22.70;99.90;;;;;;5076634;28;20060;-81
2023/09/06 08:41:27;;;;;;;33.33;20.70;;;22.70;99.90;;;;;;5076862;28;20040;-81
2023/09/06 08:43:53;;;;;;;37.15;20.10;;;22.90;99.90;;;;;;5055829;28;20072;-80
2023/09/06 08:46:22;;;;;;;30.00;18.15;;;23.00;99.90;;;;;;5057079;28;20117;-83
2023/09/06 08:48:50;;;;;;;33.90;18.92;;;23.20;99.90;;;;;;5056613;28;20048;-80
2023/09/06 08:51:16;;;;;;;28.02;18.30;;;23.30;99.90;;;;;;5056904;28;20091;-81
2023/09/06 08:53:43;;;;;;;31.95;18.55;;;23.50;99.90;;;;;;5049874;28;20542;-82
2023/09/06 08:56:10;;;;;;;29.98;18.20;;;23.70;99.90;;;;;;5045221;28;20048;-83
2023/09/06 09:01:07;;;;;;;30.25;18.33;;;23.90;99.90;;;;;;5042619;28;20483;-81
2023/09/06 09:03:34;;;;;;;34.53;18.17;;;24.00;99.90;;;;;;5031114;28;20127;-80
2023/09/06 09:06:06;;;;;;;28.17;18.40;;;24.10;99.90;;;;;;5059715;28;20493;-79
2023/09/06 09:08:33;;;;;;;27.58;18.80;;;24.20;99.90;;;;;;5069032;28;20041;-81
2023/09/06 09:10:59;;;;;;;29.00;19.08;;;24.40;99.90;;;;;;5070256;28;20064;-83
2023/09/06 09:13:27;;;;;;;28.92;16.85;;;24.60;99.90;;;;;;5052944;28;20139;-82
2023/09/06 09:15:54;;;;;;;26.65;15.90;;;24.80;99.90;;;;;;5061306;28;20040;-81
2023/09/06 09:21:07;;;;;;;26.63;15.38;;;25.00;99.90;;;;;;5058384;28;20111;-82
2023/09/06 09:23:33;;;;;;;23.30;14.18;;;25.00;99.90;;;;;;5062449;28;20200;-82
2023/09/06 09:26:00;;;;;;;22.77;16.77;;;25.10;99.90;;;;;;5075907;28;20051;-86
2023/09/06 09:31:14;;;;;;;28.05;17.35;;;25.40;99.90;;;;;;5067552;28;20094;-83
2023/09/06 09:33:40;;;;;;;24.77;16.67;;;25.50;99.90;;;;;;5057505;28;20060;-82
2023/09/06 09:36:07;;;;;;;25.38;16.02;;;25.50;99.90;;;;;;5076606;28;20058;-83
2023/09/06 09:38:34;;;;;;;26.13;15.63;;;25.60;99.90;;;;;;5058349;28;20052;-82
2023/09/06 09:41:02;;;;;;;23.23;15.23;;;25.80;99.90;;;;;;5066659;28;20061;-83
2023/09/06 09:43:32;;;;;;;21.50;14.20;;;25.90;99.90;;;;;;5075360;28;20040;-84
2023/09/06 09:46:00;;;;;;;23.45;15.88;;;26.00;99.90;;;;;;5022533;28;20148;-85
2023/09/06 09:48:31;;;;;;;21.08;14.90;;;26.10;99.90;;;;;;5055696;28;20044;-82
2023/09/06 09:51:00;;;;;;;;;;;26.10;99.90;;;;;;5053415;28;20152;-81
2023/09/06 09:53:27;;;;;;;21.90;13.63;;;26.30;99.90;;;;;;5078208;28;19924;-84
2023/09/06 09:55:54;;;;;;;22.35;14.88;;;26.40;99.90;;;;;;5076214;28;20471;-81
2023/09/06 09:58:21;;;;;;;28.73;15.73;;;26.50;99.90;;;;;;5095523;28;20046;-82
2023/09/06 10:00:50;;;;;;;24.33;14.77;;;26.60;99.90;;;;;;5081473;28;20059;-82
2023/09/06 10:03:18;;;;;;;22.88;16.23;;;26.70;99.90;;;;;;5078383;28;20049;-81
2023/09/06 10:05:45;;;;;;;23.58;14.77;;;26.90;99.90;;;;;;5075877;28;20053;-80
2023/09/06 10:08:13;;;;;;;21.60;14.20;;;27.00;99.90;;;;;;5093110;28;20044;-81
2023/09/06 10:10:41;;;;;;;22.98;13.27;;;27.10;99.90;;;;;;5094875;28;20052;-84
2023/09/06 10:13:08;;;;;;;24.08;13.52;;;27.30;99.90;;;;;;5096021;28;20114;-84
2023/09/06 10:15:35;;;;;;;22.90;13.45;;;27.50;99.90;;;;;;5085639;28;20037;-85
2023/09/06 10:18:03;;;;;;;24.45;14.38;;;27.60;99.90;;;;;;5075887;28;20041;-84
2023/09/06 10:20:32;;;;;;;21.20;14.18;;;27.70;99.90;;;;;;5073776;28;20053;-83
2023/09/06 10:22:58;;;;;;;21.90;15.13;;;27.80;99.90;;;;;;5075697;28;20047;-85
2023/09/06 10:25:25;;;;;;;26.42;14.80;;;27.90;99.90;;;;;;5095278;28;20040;-88
2023/09/06 10:27:54;;;;;;;23.05;13.43;;;28.20;99.90;;;;;;5081733;28;20036;-88
2023/09/06 10:30:21;;;;;;;17.77;12.30;;;28.50;99.90;;;;;;5092958;28;20075;-84
2023/09/06 10:32:47;;;;;;;20.00;13.95;;;28.70;99.90;;;;;;5067031;28;20044;-87
2023/09/06 10:35:14;;;;;;;18.20;13.43;;;29.00;99.90;;;;;;5088379;28;20059;-85
2023/09/06 10:40:28;;;;;;;20.17;13.05;;;29.40;99.90;;;;;;5088130;28;20132;-86
2023/09/06 10:42:55;;;;;;;19.70;12.85;;;29.70;99.90;;;;;;5074755;28;20036;-86
2023/09/06 10:45:21;;;;;;;19.30;11.48;;;29.80;99.90;;;;;;5075908;28;20091;-87
2023/09/06 10:47:49;;;;;;;15.82;11.07;;;30.10;99.90;;;;;;5081932;28;20097;-87
2023/09/06 10:50:16;;;;;;;20.73;12.98;;;30.50;99.90;;;;;;5094064;28;20114;-83
2023/09/06 10:52:43;;;;;;;18.95;13.13;;;30.80;99.90;;;;;;5057449;28;20487;-88
2023/09/06 10:55:13;;;;;;;18.48;12.02;;;31.00;99.90;;;;;;5055063;28;20152;-89
2023/09/06 10:57:41;;;;;;;17.30;10.68;;;31.20;99.90;;;;;;5060371;28;20049;-83
2023/09/06 11:00:12;;;;;;;14.88;9.68;;;31.40;99.90;;;;;;5040274;28;20045;-83
2023/09/06 11:02:42;;;;;;;18.33;10.10;;;31.40;99.90;;;;;;5031852;28;20109;-86
2023/09/06 11:05:09;;;;;;;23.17;10.85;;;31.70;99.90;;;;;;5063640;28;20044;-88
2023/09/06 11:07:37;;;;;;;17.73;11.18;;;31.60;99.90;;;;;;5043206;28;20033;-86
2023/09/06 11:10:15;;;;;;;16.15;10.57;;;31.70;99.90;;;;;;5054437;28;20045;-86
2023/09/06 11:12:42;;;;;;;19.30;11.25;;;31.70;99.90;;;;;;5038017;28;20044;-85
2023/09/06 11:15:09;;;;;;;18.30;9.82;;;32.00;99.90;;;;;;5041925;28;20080;-83
2023/09/06 11:17:36;;;;;;;15.63;9.80;;;32.20;99.90;;;;;;5074567;28;20048;-83
2023/09/06 11:20:09;;;;;;;14.68;9.35;;;32.30;99.90;;;;;;5064506;28;20122;-83
2023/09/06 11:22:36;;;;;;;16.00;8.75;;;32.50;99.90;;;;;;5063560;28;20087;-85
2023/09/06 11:25:04;;;;;;;16.60;10.35;;;32.80;99.90;;;;;;5054024;28;20396;-85
2023/09/06 11:30:21;;;;;;;16.05;9.57;;;33.10;99.90;;;;;;5064675;28;20052;-86
2023/09/06 11:32:47;;;;;;;13.48;8.63;;;33.20;99.90;;;;;;5047919;28;20414;-85
2023/09/06 11:35:14;;;;;;;18.50;9.77;;;33.40;99.90;;;;;;5056534;28;20037;-83
2023/09/06 11:37:44;;;;;;;13.80;8.52;;;33.40;99.90;;;;;;5072741;28;20036;-79
2023/09/06 11:40:19;;;;;;;16.80;9.18;;;33.60;99.90;;;;;;5065680;28;20041;-80
2023/09/06 11:42:46;;;;;;;15.10;8.93;;;33.70;99.90;;;;;;5085504;28;20044;-82
2023/09/06 11:45:19;;;;;;;19.58;9.25;;;34.00;99.90;;;;;;5058778;28;20126;-80
2023/09/06 11:47:47;;;;;;;13.40;8.27;;;33.80;99.90;;;;;;5061886;28;20041;-80
2023/09/06 11:50:18;;;;;;;13.85;6.97;;;33.80;99.90;;;;;;5088317;28;20036;-83
2023/09/06 11:52:46;;;;;;;15.88;7.97;;;34.00;99.90;;;;;;5066000;28;20101;-80
2023/09/06 11:55:24;;;;;;;12.65;6.95;;;34.40;99.90;;;;;;5077030;28;20490;-80
2023/09/06 11:57:57;;;;;;;15.00;7.07;;;34.60;99.90;;;;;;5077350;28;20036;-83
2023/09/06 12:00:27;;;;;;;13.75;7.53;;;34.90;99.90;;;;;;5093180;28;20047;-82
2023/09/06 12:02:55;;;;;;;19.67;8.40;;;35.00;99.90;;;;;;5065998;28;20360;-80
2023/09/06 12:05:22;;;;;;;14.73;7.75;;;35.00;99.90;;;;;;5076015;28;20399;-84
2023/09/06 12:08:05;;;;;;;19.38;7.85;;;34.90;99.90;;;;;;5067587;28;20064;-84
2023/09/06 12:10:34;;;;;;;14.07;6.78;;;34.90;99.90;;;;;;5066979;28;20044;-81
2023/09/06 12:13:01;;;;;;;16.92;7.18;;;35.20;99.90;;;;;;5044568;28;20052;-85
2023/09/06 12:15:27;;;;;;;18.10;7.85;;;35.30;99.90;;;;;;5076660;28;20056;-80
2023/09/06 12:17:56;;;;;;;12.43;6.82;;;35.50;99.90;;;;;;5037170;28;20087;-85
2023/09/06 12:20:23;;;;;;;15.27;6.63;;;35.60;99.90;;;;;;5086065;28;20040;-83
2023/09/06 12:22:50;;;;;;;18.83;6.35;;;35.60;99.90;;;;;;5068677;28;20116;-83
2023/09/06 12:25:16;;;;;;;12.02;5.50;;;35.80;99.90;;;;;;5082102;28;20123;-81
2023/09/06 12:27:43;;;;;;;14.57;6.90;;;35.90;99.90;;;;;;5053318;28;20072;-80
2023/09/06 12:30:10;;;;;;;13.15;5.88;;;36.00;99.90;;;;;;5069694;28;20431;-84
2023/09/06 12:32:37;;;;;;;14.48;6.18;;;35.90;99.90;;;;;;5086872;28;20036;-82
2023/09/06 12:35:04;;;;;;;13.60;5.63;;;36.10;99.90;;;;;;5062641;28;20051;-81
2023/09/06 12:37:35;;;;;;;13.63;6.30;;;35.80;99.90;;;;;;5077131;28;20035;-83
2023/09/06 12:40:01;;;;;;;14.57;6.75;;;35.90;99.90;;;;;;5075879;28;20372;-83
2023/09/06 12:42:28;;;;;;;12.65;5.95;;;36.20;99.90;;;;;;5040377;28;20041;-82
2023/09/06 12:44:55;;;;;;;11.52;5.80;;;36.00;99.90;;;;;;5082757;28;20040;-82
2023/09/06 12:47:22;;;;;;;12.93;5.80;;;36.00;99.90;;;;;;5078948;28;20351;-84
2023/09/06 12:49:51;;;;;;;12.20;6.05;;;36.20;99.90;;;;;;5086975;28;20355;-81
2023/09/06 12:52:21;;;;;;;14.32;5.40;;;36.40;99.90;;;;;;5067922;28;20390;-86
2023/09/06 12:54:48;;;;;;;14.80;5.80;;;36.60;99.90;;;;;;5039709;28;20127;-81
2023/09/06 12:57:17;;;;;;;12.18;5.68;;;36.40;99.90;;;;;;5063542;28;20521;-84